Tiempo atmosférico en la estación meteorológica de El Maíllo, Salamanca (1027 m.)



Fecha
DESCASC
Temp. máxima en grados centígrados (hora)
DESCASC
Temp. mínima en grados centígrados (hora)
DESCASC
Temp. media en grados centígrados
DESCASC
Racha de viento máxima en m/sg (hora)
DESCASC
Velocidad máxima media en intervalos de 10 minutos(hora)
DESCASC
Precipitaciones diarias en mm
DESCASC
Precipitaciones de 00:00 a 06:00 en mm
DESCASC
Precipitaciones de 06:00 a 12:00 en mm
DESCASC
Precipitaciones de 12:00 a 18:00 en mm
DESCASC
Precipitaciones de 18:00 a 24:00 en mm
DESCASC
18-08-2019 26.5 (17:20) 10.8 (07:30) 18.7 9.72 (15:10) 6.11 (17:20) 0 0 0 0 0
17-08-2019 32.3 (16:10) 12.6 (06:50) 22.4 13.33 (18:00) 6.11 (17:10) 0 0 0 0 0
16-08-2019 30.9 (17:40) 13.8 (07:30) 22.3 11.94 (15:50) 6.11 (15:40) 0 0 0 0 0
15-08-2019 30.6 (17:00) 12.5 (00:00) 21.6 8.33 (17:00) 5.28 (11:30) 0 0 0 0 0
14-08-2019 29 (17:50) 12 (00:00) 20.5 8.06 (18:00) 4.72 (06:00) 0 0 0 0 0
13-08-2019 25.7 (17:50) 10.7 (00:00) 18.2 7.22 (12:00) 4.72 (11:50) 0 0 0 0 0
12-08-2019 21.6 (17:40) 5.6 (00:00) 13.6 10.56 (11:50) 6.94 (11:50) 0 0 0 0 0
11-08-2019 20.4 (17:50) 11 (00:00) 15.7 10 (16:30) 6.39 (17:30) 0.2 0.2 0 0 0
10-08-2019 24.6 (18:00) 10.1 (00:00) 17.4 8.06 (17:30) 5.28 (17:30) 0 0 0 0 0
09-08-2019 20.3 (19:40) 12.4 (00:00) 16.3 15 (14:20) 9.72 (14:30) 8 0 2.2 5.8 0
08-08-2019 27.4 (17:30) 18.4 (00:00) 22.9 13.89 (16:20) 8.33 (16:50) 0 0 0 0 0
07-08-2019 23.3 (14:40) 14.6 (00:00) 18.9 9.17 (17:30) 6.11 (18:00) 0 0 0 0 0
06-08-2019 30.4 (15:30) 13.1 (00:00) 21.8 10.83 (15:50) 5.28 (17:10) 0 0 0 0 0
05-08-2019 30.3 (17:50) 11 (00:00) 20.6 14.72 (16:30) 5.83 (17:20) 0 0 0 0 0
04-08-2019 30.8 (16:10) 13.4 (00:00) 22.1 12.5 (13:30) 6.94 (17:20) 0 0 0 0 0
03-08-2019 30.7 (18:30) 13.5 (00:00) 22.1 9.72 (15:50) 5 (14:30) 0 0 0 0 0
02-08-2019 30.6 (17:40) 11.6 (00:00) 21.1 6.94 (15:10) 4.72 (01:50) 0 0 0 0 0
01-08-2019 28.9 (17:40) 11.8 (00:00) 20.3 11.11 (15:20) 6.11 (16:20) 0 0 0 0 0
31-07-2019 28.9 (16:10) 12.4 (00:00) 20.6 8.33 (15:50) 5.28 (04:50) 0 0 0 0 0
30-07-2019 24.1 (18:40) 5.9 (00:00) 15 10.56 (17:00) 6.67 (15:00) 0 0 0 0 0
29-07-2019 23.3 (16:50) 10.2 (00:00) 16.7 10 (17:20) 6.11 (18:20) 0 0 0 0 0
28-07-2019 26.7 (18:50) 10.9 (00:00) 18.8 9.72 (16:10) 5.56 (16:10) 0 0 0 0 0
27-07-2019 22.4 (17:50) 10.4 (00:00) 16.4 11.39 (16:20) 7.22 (16:30) 1 0 1 0 0
26-07-2019 22.4 (18:10) 11.5 (00:00) 16.9 11.11 (17:30) 6.11 (17:50) 0.8 0.8 0 0 0
25-07-2019 29 (17:00) 16.3 (00:00) 22.6 12.22 (14:10) 8.33 (15:00) 0 0 0 0 0
24-07-2019 31.6 (18:50) 18.1 (00:00) 24.9 11.67 (16:30) 6.94 (15:00) 0 0 0 0 0
23-07-2019 31.4 (17:10) 20.4 (00:00) 25.9 16.67 (15:00) 10.83 (12:50) 0 0 0 0 0
22-07-2019 35.6 (17:30) 18.7 (00:00) 27.1 9.72 (18:40) 5.56 (18:40) 0 0 0 0 0
21-07-2019 34.2 (17:50) 14.8 (00:00) 24.5 9.17 (18:00) 5.28 (18:00) 0 0 0 0 0

Gráficas

Temp. máximas Temp. mínimas Temp. medias Precipitaciones Rachas de viento máximas Velocidades máximas media en intervalos de 10 minutos

Datos horarios

Fecha y hora oficial Temperatura (ºC) Velocidad del viento (km/h) Dirección del viento Racha (km/h) Dirección de racha Precipitación (mm) Presión (hPa) Tendencia (hPa) Humedad (%)
2019-08-19 23:00:00 17.2 6 Sur 9 Sur 0 -- -- 60
2019-08-19 22:00:00 18 5 Sudeste 9 Sur 0 -- -- 59
2019-08-19 21:00:00 21 5 Norte 17 Norte 0 -- -- 48
2019-08-19 20:00:00 22.9 7 Norte 12 Noroeste 0 -- -- 45
2019-08-19 19:00:00 22.8 5 Norte 19 Noroeste 0 -- -- 45
2019-08-19 18:00:00 22.9 10 Noroeste 18 Noroeste 0 -- -- 46
2019-08-19 17:00:00 22.2 9 Noroeste 14 Noroeste 0 -- -- 50
2019-08-19 16:00:00 22.5 5 Norte 15 Norte 0 -- -- 51
2019-08-19 15:00:00 23.1 8 Noroeste 16 Norte 0 -- -- 51
2019-08-19 14:00:00 21.6 9 Norte 19 Norte 0 -- -- 56
2019-08-19 13:00:00 21.6 7 Norte 17 Norte 0 -- -- 55
2019-08-19 12:00:00 20.4 8 Nordeste 17 Norte 0 -- -- 58
2019-08-19 11:00:00 18.2 6 Norte 17 Norte 0 -- -- 64
2019-08-19 10:00:00 16.5 8 Nordeste 13 Nordeste 0 -- -- 71
2019-08-19 09:00:00 13.9 4 Este 8 Este 0 -- -- 86
2019-08-19 08:00:00 12.5 2 Noroeste 6 Sudeste 0 -- -- 88
2019-08-19 07:00:00 11.7 4 Sudeste 12 Sur 0 -- -- 92
2019-08-19 06:00:00 11.7 5 Sur 9 Sudeste 0 -- -- 90
2019-08-19 05:00:00 12.1 5 Sudeste 10 Sudeste 0 -- -- 87
2019-08-19 04:00:00 13.1 6 Sur 8 Sur 0 -- -- 84
2019-08-19 03:00:00 15.5 0 Calma 4 Sudeste 0 -- -- 78
2019-08-19 02:00:00 16.4 0 Calma 13 Oeste 0 -- -- 74
2019-08-19 01:00:00 17.7 8 Oeste 16 Oeste 0 -- -- 70
2019-08-19 00:00:00 18.1 5 Oeste 15 Oeste 0 -- -- 74
2019-08-18 23:00:00 18.2 9 Sudoeste 15 Oeste 0 -- -- 73
2019-08-18 22:00:00 20.1 8 Oeste 21 Oeste 0 -- -- 65
2019-08-18 21:00:00 23 15 Oeste 24 Oeste 0 -- -- 54
2019-08-18 20:00:00 23.9 17 Oeste 33 Oeste 0 -- -- 55
2019-08-18 19:00:00 24.9 16 Noroeste 30 Noroeste 0 -- -- 53
2019-08-18 18:00:00 25.3 15 Noroeste 32 Oeste 0 -- -- 49
2019-08-18 17:00:00 25.7 15 Oeste 34 Oeste 0 -- -- 47
2019-08-18 16:00:00 25.9 19 Noroeste 35 Oeste 0 -- -- 43
2019-08-18 15:00:00 24.8 22 Oeste 34 Oeste 0 -- -- 45
2019-08-18 14:00:00 24.5 11 Oeste 21 Oeste 0 -- -- 44
2019-08-18 13:00:00 21.8 9 Oeste 22 Oeste 0 -- -- 47
2019-08-18 12:00:00 21.3 15 Oeste 23 Noroeste 0 -- -- 60
2019-08-18 11:00:00 20.7 12 Oeste 16 Oeste 0 -- -- 50
2019-08-18 10:00:00 15 9 Oeste 17 Oeste 0 -- -- 86
2019-08-18 09:00:00 15.8 2 Sur 19 Sur 0 -- -- 71
2019-08-18 08:00:00 11.5 17 Sur 20 Sur 0 -- -- 75
2019-08-18 07:00:00 11.7 9 Sudoeste 13 Sur 0 -- -- 85
2019-08-18 06:00:00 12.8 10 Sur 13 Sur 0 -- -- 70
2019-08-18 05:00:00 14.4 14 Sur 19 Sur 0 -- -- 64
2019-08-18 04:00:00 15.1 14 Sur 17 Sur 0 -- -- 67
2019-08-18 03:00:00 15.3 12 Sur 13 Sur 0 -- -- 82
2019-08-18 02:00:00 16.9 6 Sudoeste 14 Sudoeste 0 -- -- 77
2019-08-18 01:00:00 18.3 6 Sudoeste 15 Sudoeste 0 -- -- 71
2019-08-18 00:00:00 20.7 9 Sudoeste 22 Oeste 0 -- -- 63
2019-08-17 23:00:00 22.5 9 Sudoeste 18 Sudoeste 0 -- -- 44
2019-08-17 22:00:00 23.2 11 Sur 19 Oeste 0 -- -- 38
2019-08-17 21:00:00 29.1 10 Sudoeste 30 Sudoeste 0 -- -- 26
2019-08-17 20:00:00 31.1 15 Sudoeste 27 Sudoeste 0 -- -- 23
2019-08-17 19:00:00 32.1 16 Sudoeste 31 Sudoeste 0 -- -- 21
2019-08-17 18:00:00 32.1 20 Oeste 48 Oeste 0 -- -- 23
2019-08-17 17:00:00 32 19 Oeste 36 Oeste 0 -- -- 24
2019-08-17 16:00:00 31.8 10 Sudeste 31 Sur 0 -- -- 27
2019-08-17 15:00:00 30.3 10 Noroeste 24 Noroeste 0 -- -- 30
2019-08-17 14:00:00 28.4 11 Noroeste 21 Noroeste 0 -- -- 33
2019-08-17 13:00:00 26.8 9 Noroeste 17 Noroeste 0 -- -- 39
2019-08-17 12:00:00 25 8 Noroeste 17 Noroeste 0 -- -- 40
2019-08-17 11:00:00 23.2 7 Noroeste 11 Noroeste 0 -- -- 52
2019-08-17 10:00:00 21.3 4 Noroeste 9 Sudeste 0 -- -- 59
2019-08-17 09:00:00 17.3 6 Sudeste 9 Sur 0 -- -- 70
2019-08-17 08:00:00 12.6 7 Sudeste 15 Sur 0 -- -- 82
2019-08-17 07:00:00 12.7 10 Sur 13 Sudeste 0 -- -- 78
2019-08-17 06:00:00 13.6 6 Sur 11 Sudeste 0 -- -- 73
2019-08-17 05:00:00 14.9 6 Sudeste 20 Sur 0 -- -- 72
2019-08-17 04:00:00 15.3 14 Sur 19 Sudeste 0 -- -- 65
2019-08-17 03:00:00 15.3 15 Sur 17 Sur 0 -- -- 63
2019-08-17 02:00:00 15.8 8 Sur 14 Sur 0 -- -- 60
2019-08-17 01:00:00 17.1 7 Sur 18 Sur 0 -- -- 56
2019-08-17 00:00:00 18.1 12 Sur 17 Sur 0 -- -- 55
2019-08-16 23:00:00 20.3 8 Sudoeste 13 Sur 0 -- -- 51
2019-08-16 22:00:00 23.3 6 Sur 18 Noroeste 0 -- -- 45
2019-08-16 21:00:00 28 10 Noroeste 18 Oeste 0 -- -- 33
2019-08-16 20:00:00 29.6 16 Oeste 27 Oeste 0 -- -- 26
2019-08-16 19:00:00 30.8 16 Oeste 26 Oeste 0 -- -- 20
2019-08-16 18:00:00 30.7 16 Noroeste 31 Oeste 0 -- -- 27
2019-08-16 17:00:00 30.6 16 Oeste 34 Oeste 0 -- -- 26
2019-08-16 16:00:00 30.1 21 Oeste 43 Oeste 0 -- -- 32
2019-08-16 15:00:00 28.9 20 Oeste 30 Noroeste 0 -- -- 37
2019-08-16 14:00:00 28.1 14 Oeste 30 Noroeste 0 -- -- 42
2019-08-16 13:00:00 26.5 12 Noroeste 21 Noroeste 0 -- -- 46
2019-08-16 12:00:00 24.7 9 Noroeste 15 Oeste 0 -- -- 50
2019-08-16 11:00:00 22.7 8 Oeste 13 Noroeste 0 -- -- 57
2019-08-16 10:00:00 21.1 5 Oeste 8 Oeste 0 -- -- 61
2019-08-16 09:00:00 17.4 3 Sur 9 Sur 0 -- -- 74
2019-08-16 08:00:00 14.8 3 Sudoeste 17 Sur 0 -- -- 82
2019-08-16 07:00:00 14.3 8 Sur 14 Sur 0 -- -- 82
2019-08-16 06:00:00 15.3 9 Sur 18 Sur 0 -- -- 78
2019-08-16 05:00:00 15.9 13 Sur 16 Sur 0 -- -- 78
2019-08-16 04:00:00 16.2 9 Sur 17 Sudeste 0 -- -- 77
2019-08-16 03:00:00 16.9 12 Sur 15 Sur 0 -- -- 74
2019-08-16 02:00:00 17.7 12 Sur 18 Sur 0 -- -- 70
2019-08-16 01:00:00 18.4 11 Sur 15 Sur 0 -- -- 65
2019-08-16 00:00:00 19.7 8 Sur 16 Sur 0 -- -- 58
2019-08-15 23:00:00 20.6 13 Sur 15 Sur 0 -- -- 51
2019-08-15 22:00:00 22.6 12 Sur 18 Noroeste 0 -- -- 45
2019-08-15 21:00:00 27.5 12 Noroeste 26 Noroeste 0 -- -- 34
2019-08-15 20:00:00 29.6 14 Noroeste 22 Noroeste 0 -- -- 27
2019-08-15 19:00:00 30.2 15 Oeste 26 Noroeste 0 -- -- 27
2019-08-15 18:00:00 30.6 13 Noroeste 22 Noroeste 0 -- -- 25
2019-08-15 17:00:00 30.6 9 Noroeste 30 Norte 0 -- -- 25
2019-08-15 16:00:00 30 12 Norte 26 Noroeste 0 -- -- 26
2019-08-15 15:00:00 29.2 14 Norte 28 Nordeste 0 -- -- 27
2019-08-15 14:00:00 28.4 9 Norte 24 Nordeste 0 -- -- 29
2019-08-15 13:00:00 27.2 11 Nordeste 27 Nordeste 0 -- -- 32
2019-08-15 12:00:00 26 18 Nordeste 28 Nordeste 0 -- -- 32
2019-08-15 11:00:00 23.5 13 Nordeste 22 Nordeste 0 -- -- 44
2019-08-15 10:00:00 21.2 14 Nordeste 21 Nordeste 0 -- -- 64
2019-08-15 09:00:00 18.1 10 Este 16 Nordeste 0 -- -- 81
2019-08-15 08:00:00 13 6 Este 11 Este 0 -- -- 94
2019-08-15 07:00:00 12.8 8 Sur 13 Sur 0 -- -- 87
2019-08-15 06:00:00 14.5 4 Sur 14 Sudeste 0 -- -- 86
2019-08-15 05:00:00 15.2 5 Sudoeste 14 Sur 0 -- -- 83
2019-08-15 04:00:00 15.7 11 Sur 14 Sur 0 -- -- 80
2019-08-15 03:00:00 17.4 6 Sudoeste 19 Sur 0 -- -- 77
2019-08-15 02:00:00 17.5 12 Sur 18 Sur 0 -- -- 77
2019-08-15 01:00:00 17.9 11 Sur 15 Sur 0 -- -- 72
2019-08-15 00:00:00 18.8 8 Sur 14 Sudeste 0 -- -- 63
2019-08-14 23:00:00 19.7 7 Sur 14 Sur 0 -- -- 57
2019-08-14 22:00:00 22.1 5 Sur 15 Noroeste 0 -- -- 50
2019-08-14 21:00:00 26.2 10 Noroeste 21 Noroeste 0 -- -- 40
2019-08-14 20:00:00 27.7 12 Noroeste 25 Noroeste 0 -- -- 36
2019-08-14 19:00:00 28.4 13 Noroeste 25 Norte 0 -- -- 32
2019-08-14 18:00:00 28.9 15 Noroeste 29 Noroeste 0 -- -- 30
2019-08-14 17:00:00 28.4 10 Noroeste 24 Noroeste 0 -- -- 27
2019-08-14 16:00:00 28.3 14 Noroeste 27 Sudoeste 0 -- -- 29
2019-08-14 15:00:00 27.2 13 Noroeste 23 Noroeste 0 -- -- 28
2019-08-14 14:00:00 26.3 8 Noroeste 19 Sudoeste 0 -- -- 29
2019-08-14 13:00:00 24.9 6 Norte 16 Oeste 0 -- -- 29
2019-08-14 12:00:00 23.5 8 Noroeste 16 Noroeste 0 -- -- 32
2019-08-14 11:00:00 22.3 5 Noroeste 10 Norte 0 -- -- 34
2019-08-14 10:00:00 19 0 Calma 11 Oeste 0 -- -- 43
2019-08-14 09:00:00 15.6 10 Sur 17 Sudeste 0 -- -- 47
2019-08-14 08:00:00 12.1 14 Sur 19 Sur 0 -- -- 55
2019-08-14 07:00:00 12.2 14 Sur 20 Sur 0 -- -- 54
2019-08-14 06:00:00 12.3 17 Sur 21 Sur 0 -- -- 53
2019-08-14 05:00:00 12.9 13 Sur 16 Sur 0 -- -- 51
2019-08-14 04:00:00 13.1 13 Sur 17 Sur 0 -- -- 50
2019-08-14 03:00:00 13.5 14 Sur 17 Sudeste 0 -- -- 49
2019-08-14 02:00:00 13.1 12 Sur 15 Sudeste 0 -- -- 51
2019-08-14 01:00:00 13.2 9 Sudeste 17 Sudeste 0 -- -- 50
2019-08-14 00:00:00 14.5 13 Sur 18 Sur 0 -- -- 47
2019-08-13 23:00:00 15.3 12 Sudeste 14 Sudeste 0 -- -- 45
2019-08-13 22:00:00 17.9 5 Sur 13 Noroeste 0 -- -- 39
2019-08-13 21:00:00 23.5 9 Noroeste 18 Norte 0 -- -- 27
2019-08-13 20:00:00 25 9 Norte 23 Norte 0 -- -- 24
2019-08-13 19:00:00 25.5 9 Norte 22 Norte 0 -- -- 23
2019-08-13 18:00:00 25.5 9 Norte 23 Nordeste 0 -- -- 23
2019-08-13 17:00:00 25.3 8 Norte 24 Norte 0 -- -- 25
2019-08-13 16:00:00 24.8 10 Nordeste 24 Norte 0 -- -- 27
2019-08-13 15:00:00 23.9 9 Norte 23 Norte 0 -- -- 29
2019-08-13 14:00:00 22.9 13 Este 23 Este 0 -- -- 29
2019-08-13 13:00:00 22 14 Nordeste 23 Nordeste 0 -- -- 32
2019-08-13 12:00:00 20.6 15 Nordeste 26 Nordeste 0 -- -- 37
2019-08-13 11:00:00 19.1 11 Nordeste 17 Nordeste 0 -- -- 43
2019-08-13 10:00:00 16 10 Nordeste 14 Nordeste 0 -- -- 53
2019-08-13 09:00:00 14.9 9 Nordeste 14 Este 0 -- -- 53
2019-08-13 08:00:00 13.3 10 Este 16 Este 0 -- -- 51
2019-08-13 07:00:00 11.4 12 Este 22 Este 0 -- -- 60
2019-08-13 06:00:00 13.8 16 Este 22 Este 0 -- -- 52
2019-08-13 05:00:00 12 13 Este 19 Nordeste 0 -- -- 58
2019-08-13 04:00:00 12.2 14 Este 19 Este 0 -- -- 55
2019-08-13 03:00:00 12.7 12 Nordeste 24 Este 0 -- -- 52
2019-08-13 02:00:00 13.4 11 Este 19 Este 0 -- -- 47
2019-08-13 01:00:00 14.4 9 Este 17 Este 0 -- -- 42
2019-08-13 00:00:00 12.7 6 Este 9 Este 0 -- -- 49
2019-08-12 23:00:00 15.4 7 Este 11 Este 0 -- -- 39
2019-08-12 22:00:00 17.7 9 Nordeste 23 Nordeste 0 -- -- 35
2019-08-12 21:00:00 19 15 Nordeste 27 Norte 0 -- -- 30
2019-08-12 20:00:00 19.9 14 Nordeste 27 Norte 0 -- -- 27
2019-08-12 19:00:00 21.6 13 Nordeste 31 Norte 0 -- -- 26
2019-08-12 18:00:00 21.1 17 Nordeste 36 Norte 0 -- -- 29
2019-08-12 17:00:00 21.2 19 Nordeste 34 Nordeste 0 -- -- 29
2019-08-12 16:00:00 20.6 19 Nordeste 36 Norte 0 -- -- 33
2019-08-12 15:00:00 19.6 17 Nordeste 35 Nordeste 0 -- -- 37
2019-08-12 14:00:00 18.4 20 Nordeste 37 Este 0 -- -- 38
2019-08-12 13:00:00 17 23 Nordeste 37 Nordeste 0 -- -- 44
2019-08-12 12:00:00 15.2 24 Nordeste 38 Nordeste 0 -- -- 54
2019-08-12 11:00:00 13.8 23 Nordeste 34 Nordeste 0 -- -- 63
2019-08-12 10:00:00 11.1 19 Nordeste 30 Nordeste 0 -- -- 75
2019-08-12 09:00:00 9.8 16 Nordeste 26 Este 0 -- -- 79
2019-08-12 08:00:00 7.6 9 Este 13 Nordeste 0 -- -- 90
2019-08-12 07:00:00 7.1 5 Este 8 Este 0 -- -- 90
2019-08-12 06:00:00 5.7 5 Este 8 Sudeste 0 -- -- 93
2019-08-12 05:00:00 6.4 4 Este 10 Sur 0 -- -- 89
2019-08-12 04:00:00 8.2 4 Este 9 Este 0 -- -- 85
2019-08-12 03:00:00 7.8 7 Sudeste 12 Sur 0 -- -- 88
2019-08-12 02:00:00 9.4 0 Calma 9 Sur 0 -- -- 81
2019-08-12 01:00:00 9.7 6 Sur 11 Sudoeste 0 -- -- 80
2019-08-12 00:00:00 11.4 5 Sudoeste 13 Noroeste 0 -- -- 73
2019-08-11 23:00:00 13 7 Oeste 16 Noroeste 0 -- -- 66
2019-08-11 22:00:00 15.2 6 Noroeste 19 Noroeste 0 -- -- 53
2019-08-11 21:00:00 17.7 13 Noroeste 23 Oeste 0 -- -- 43
2019-08-11 20:00:00 19.2 17 Noroeste 27 Oeste 0 -- -- 38
2019-08-11 19:00:00 20 19 Noroeste 33 Noroeste 0 -- -- 37
2019-08-11 18:00:00 20.2 18 Oeste 36 Oeste 0 -- -- 38
2019-08-11 17:00:00 20.3 19 Noroeste 36 Oeste 0 -- -- 39
2019-08-11 16:00:00 19.3 19 Oeste 35 Noroeste 0 -- -- 41
2019-08-11 15:00:00 18.2 12 Oeste 31 Oeste 0 -- -- 49
2019-08-11 14:00:00 16.7 15 Oeste 26 Oeste 0 -- -- 58
2019-08-11 13:00:00 16.3 10 Noroeste 21 Oeste 0 -- -- 67
2019-08-11 12:00:00 13.6 10 Noroeste 15 Noroeste 0 -- -- 85
2019-08-11 11:00:00 11.7 10 Oeste 17 Oeste 0 -- -- 97
2019-08-11 10:00:00 11 10 Oeste 15 Oeste 0 -- -- 97
2019-08-11 09:00:00 11.3 6 Sudoeste 14 Oeste 0 -- -- 97
2019-08-11 08:00:00 11.6 6 Oeste 13 Oeste 0 -- -- 96
2019-08-11 07:00:00 11.7 6 Oeste 11 Oeste 0 -- -- 96
2019-08-11 06:00:00 11.1 4 Sudoeste 11 Este 0 -- -- 91
2019-08-11 05:00:00 13.1 13 Este 24 Este 0 -- -- 85
2019-08-11 04:00:00 13.6 0 Calma 15 Oeste 0.2 -- -- 86
2019-08-11 03:00:00 14.2 5 Sudoeste 11 Oeste 0 -- -- 78
2019-08-11 02:00:00 14.8 8 Oeste 16 Oeste 0 -- -- 75
2019-08-11 01:00:00 15.5 9 Oeste 14 Oeste 0 -- -- 71
2019-08-11 00:00:00 15.9 3 Sudoeste 12 Oeste 0 -- -- 66
2019-08-10 23:00:00 15.3 11 Sur 14 Sur 0 -- -- 65
2019-08-10 22:00:00 17.4 8 Sur 14 Sur 0 -- -- 60
2019-08-10 21:00:00 21.1 6 Noroeste 21 Noroeste 0 -- -- 43
2019-08-10 20:00:00 23.2 11 Noroeste 23 Noroeste 0 -- -- 41
2019-08-10 19:00:00 24.2 13 Noroeste 25 Noroeste 0 -- -- 40
2019-08-10 18:00:00 24.6 10 Oeste 29 Oeste 0 -- -- 39
2019-08-10 17:00:00 24.2 13 Noroeste 25 Noroeste 0 -- -- 40
2019-08-10 16:00:00 23.4 10 Norte 21 Noroeste 0 -- -- 44
2019-08-10 15:00:00 22.3 9 Noroeste 18 Oeste 0 -- -- 46
2019-08-10 14:00:00 20.9 7 Noroeste 16 Noroeste 0 -- -- 50
2019-08-10 13:00:00 19.2 8 Noroeste 17 Nordeste 0 -- -- 61
2019-08-10 12:00:00 17.6 8 Nordeste 15 Nordeste 0 -- -- 70
2019-08-10 11:00:00 15.8 6 Norte 14 Nordeste 0 -- -- 74
2019-08-10 10:00:00 15.1 5 Nordeste 8 Nordeste 0 -- -- 79
2019-08-10 09:00:00 12.8 0 Calma 10 Sur 0 -- -- 91
2019-08-10 08:00:00 10.8 9 Sur 14 Sur 0 -- -- 95
2019-08-10 07:00:00 11 9 Sur 12 Sur 0 -- -- 95
2019-08-10 06:00:00 11.1 9 Sur 15 Sur 0 -- -- 96
2019-08-10 05:00:00 10.4 9 Sur 13 Sur 0 -- -- 96
2019-08-10 04:00:00 10.1 11 Sur 14 Sudeste 0 -- -- 95
2019-08-10 03:00:00 10.6 11 Sur 13 Sur 0 -- -- 93
2019-08-10 02:00:00 11.2 5 Sur 15 Sudeste 0 -- -- 92
2019-08-10 01:00:00 11.6 12 Sur 14 Sur 0 -- -- 91
2019-08-10 00:00:00 12.4 10 Sur 17 Sur 0 -- -- 87
2019-08-09 23:00:00 13.9 9 Sur 15 Sur 0 -- -- 80
2019-08-09 22:00:00 15.2 6 Sudoeste 16 Oeste 0 -- -- 78
2019-08-09 21:00:00 19.3 10 Oeste 22 Oeste 0 -- -- 61
2019-08-09 20:00:00 20.2 10 Oeste 20 Oeste 0 -- -- 63
2019-08-09 19:00:00 19.4 10 Sudoeste 20 Sudoeste 0 -- -- 70
2019-08-09 18:00:00 17 14 Sur 38 Sudoeste 0.8 -- -- 82
2019-08-09 17:00:00 15 19 Sudoeste 39 Sudoeste 1 -- -- 90
2019-08-09 16:00:00 15.1 23 Sudoeste 41 Sur 0.8 -- -- 81
2019-08-09 15:00:00 18.4 28 Sudoeste 54 Sudoeste 0.6 -- -- 86
2019-08-09 14:00:00 18.7 26 Sudoeste 42 Sudoeste 0.2 -- -- 89
2019-08-09 13:00:00 18.7 28 Sudoeste 48 Sudoeste 2.4 -- -- 92
2019-08-09 12:00:00 17 15 Oeste 23 Oeste 1.4 -- -- 96
2019-08-09 11:00:00 16.9 15 Oeste 36 Sudoeste 0.8 -- -- 90
2019-08-09 10:00:00 19.9 21 Sudoeste 37 Sudoeste 0 -- -- 81
2019-08-09 09:00:00 19.1 26 Sudoeste 43 Sudoeste 0 -- -- 84
2019-08-09 08:00:00 18.7 19 Sudoeste 42 Sudoeste 0 -- -- 85
2019-08-09 07:00:00 18.8 23 Sur 37 Sur 0 -- -- 82
2019-08-09 06:00:00 18.5 19 Sudoeste 36 Sur 0 -- -- 83
2019-08-09 05:00:00 18.5 14 Sudoeste 26 Sudoeste 0 -- -- 81
2019-08-09 04:00:00 19 14 Sudoeste 24 Sur 0 -- -- 75
2019-08-09 03:00:00 19.4 14 Sudoeste 27 Sur 0 -- -- 69
2019-08-09 02:00:00 19.5 10 Sudoeste 21 Sur 0 -- -- 66
2019-08-09 01:00:00 19.4 9 Sudoeste 18 Oeste 0 -- -- 66
2019-08-09 00:00:00 19.8 10 Sudoeste 22 Sudoeste 0 -- -- 67
2019-08-08 23:00:00 20.9 15 Sudoeste 27 Sudoeste 0 -- -- 63
2019-08-08 22:00:00 21.5 16 Sudoeste 27 Sudoeste 0 -- -- 64
2019-08-08 21:00:00 23.8 17 Sudoeste 38 Sudoeste 0 -- -- 57
2019-08-08 20:00:00 25.7 22 Sudoeste 41 Sudoeste 0 -- -- 50
2019-08-08 19:00:00 26.4 20 Sudoeste 42 Sur 0 -- -- 48
2019-08-08 18:00:00 26.4 24 Sur 46 Sudoeste 0 -- -- 47
2019-08-08 17:00:00 27 29 Sudoeste 50 Sur 0 -- -- 47
2019-08-08 16:00:00 26.8 27 Sur 41 Sudoeste 0 -- -- 48
2019-08-08 15:00:00 26.5 24 Sur 43 Sur 0 -- -- 49
2019-08-08 14:00:00 26.1 19 Sudoeste 39 Sur 0 -- -- 49
2019-08-08 13:00:00 24.5 17 Sur 32 Sudoeste 0 -- -- 57
2019-08-08 12:00:00 22.9 18 Sur 33 Sur 0 -- -- 63
2019-08-08 11:00:00 22.2 21 Sur 35 Sur 0 -- -- 67
2019-08-08 10:00:00 20.9 19 Sur 31 Sur 0 -- -- 72
2019-08-08 09:00:00 20.3 14 Sur 30 Sur 0 -- -- 72
2019-08-08 08:00:00 18.7 8 Sudoeste 33 Sur 0 -- -- 74
2019-08-08 07:00:00 19 14 Sur 26 Sudoeste 0 -- -- 73
2019-08-08 06:00:00 18.7 14 Sudoeste 26 Sur 0 -- -- 73
2019-08-08 05:00:00 19.1 18 Sudoeste 33 Sur 0 -- -- 72
2019-08-08 04:00:00 18.7 13 Sudoeste 22 Sudoeste 0 -- -- 70
2019-08-08 03:00:00 19 9 Sudoeste 23 Sudoeste 0 -- -- 69
2019-08-08 02:00:00 19 15 Sudoeste 28 Sur 0 -- -- 63
2019-08-08 01:00:00 19.1 14 Sur 27 Sudoeste 0 -- -- 56
2019-08-08 00:00:00 19 16 Sur 24 Sur 0 -- -- 59
2019-08-07 23:00:00 19 13 Sudoeste 21 Sur 0 -- -- 64
2019-08-07 22:00:00 19.5 14 Sudoeste 24 Sudoeste 0 -- -- 64
2019-08-07 21:00:00 20.5 14 Sudoeste 26 Sudoeste 0 -- -- 62
2019-08-07 20:00:00 22.3 18 Sudoeste 31 Sudoeste 0 -- -- 56
2019-08-07 19:00:00 22.1 17 Sudoeste 31 Sudoeste 0 -- -- 55
2019-08-07 18:00:00 22.9 22 Sudoeste 33 Sur 0 -- -- 52
2019-08-07 17:00:00 22.2 14 Sudoeste 29 Sudoeste 0 -- -- 53
2019-08-07 16:00:00 21.1 16 Sur 30 Sur 0 -- -- 60
2019-08-07 15:00:00 22.6 18 Sur 30 Sur 0 -- -- 56
2019-08-07 14:00:00 22.1 11 Sur 21 Oeste 0 -- -- 56
2019-08-07 13:00:00 21.3 13 Oeste 22 Oeste 0 -- -- 54
2019-08-07 12:00:00 20.9 10 Oeste 18 Oeste 0 -- -- 55
2019-08-07 11:00:00 19.5 6 Noroeste 12 Oeste 0 -- -- 72
2019-08-07 10:00:00 18 3 Norte 8 Este 0 -- -- 79
2019-08-07 09:00:00 16 5 Este 8 Este 0 -- -- 91
2019-08-07 08:00:00 14.6 6 Sur 8 Sur 0 -- -- 93
2019-08-07 07:00:00 15 7 Oeste 10 Oeste 0 -- -- 92
2019-08-07 06:00:00 15.5 7 Oeste 11 Oeste 0 -- -- 91
2019-08-07 05:00:00 16.6 6 Sur 10 Noroeste 0 -- -- 86
2019-08-07 04:00:00 17.5 5 Sudoeste 18 Sur 0 -- -- 79
2019-08-07 03:00:00 17.9 12 Sur 20 Sur 0 -- -- 72
2019-08-07 02:00:00 18 6 Sudoeste 10 Oeste 0 -- -- 77
2019-08-07 01:00:00 19 4 Noroeste 15 Sudeste 0 -- -- 74
2019-08-07 00:00:00 18.9 7 Sudoeste 10 Sudoeste 0 -- -- 74
2019-08-06 23:00:00 19.9 2 Sudoeste 15 Oeste 0 -- -- 71
2019-08-06 22:00:00 20.7 11 Oeste 20 Sudoeste 0 -- -- 68
2019-08-06 21:00:00 22.6 14 Oeste 27 Oeste 0 -- -- 60
2019-08-06 20:00:00 25.3 18 Noroeste 30 Oeste 0 -- -- 46
2019-08-06 19:00:00 27.6 15 Oeste 32 Oeste 0 -- -- 38
2019-08-06 18:00:00 29.5 15 Sudoeste 31 Sudoeste 0 -- -- 33
2019-08-06 17:00:00 28.7 15 Sur 32 Sur 0 -- -- 36
2019-08-06 16:00:00 29.5 13 Sur 39 Oeste 0 -- -- 36
2019-08-06 15:00:00 30.3 16 Sur 31 Sudoeste 0 -- -- 34
2019-08-06 14:00:00 28.9 14 Oeste 35 Oeste 0 -- -- 35
2019-08-06 13:00:00 26.8 16 Noroeste 27 Noroeste 0 -- -- 41
2019-08-06 12:00:00 25.7 12 Oeste 22 Oeste 0 -- -- 46
2019-08-06 11:00:00 24.5 7 Noroeste 13 Noroeste 0 -- -- 49
2019-08-06 10:00:00 21.7 6 Oeste 13 Oeste 0 -- -- 58
2019-08-06 09:00:00 18.7 3 Sur 14 Sudeste 0 -- -- 64
2019-08-06 08:00:00 14.7 8 Este 13 Este 0 -- -- 86
2019-08-06 07:00:00 13.2 10 Sudeste 13 Sudeste 0 -- -- 85
2019-08-06 06:00:00 13.6 12 Sur 15 Sur 0 -- -- 78
2019-08-06 05:00:00 14.4 8 Sur 17 Sudeste 0 -- -- 74
2019-08-06 04:00:00 15.2 6 Sur 17 Sur 0 -- -- 73
2019-08-06 03:00:00 16.3 15 Sur 19 Sur 0 -- -- 70
2019-08-06 02:00:00 17.5 9 Sur 17 Sur 0 -- -- 65
2019-08-06 01:00:00 18.7 12 Sudoeste 17 Sudoeste 0 -- -- 66
2019-08-06 00:00:00 18.5 9 Sudoeste 15 Sur 0 -- -- 60
2019-08-05 23:00:00 20 12 Sur 15 Sur 0 -- -- 53
2019-08-05 22:00:00 23 5 Sur 14 Noroeste 0 -- -- 47
2019-08-05 21:00:00 27.4 11 Noroeste 27 Oeste 0 -- -- 37
2019-08-05 20:00:00 28.8 14 Noroeste 30 Oeste 0 -- -- 29
2019-08-05 19:00:00 29.9 14 Oeste 37 Oeste 0 -- -- 30
2019-08-05 18:00:00 30.2 18 Oeste 40 Oeste 0 -- -- 27
2019-08-05 17:00:00 29.9 21 Oeste 53 Noroeste 0 -- -- 29
2019-08-05 16:00:00 29.6 12 Noroeste 27 Oeste 0 -- -- 34
2019-08-05 15:00:00 29 13 Noroeste 27 Oeste 0 -- -- 38
2019-08-05 14:00:00 26.7 9 Norte 22 Oeste 0 -- -- 44
2019-08-05 13:00:00 25.7 11 Noroeste 18 Noroeste 0 -- -- 50
2019-08-05 12:00:00 23.7 5 Norte 14 Noroeste 0 -- -- 55
2019-08-05 11:00:00 21.9 4 Norte 11 Norte 0 -- -- 63
2019-08-05 10:00:00 19.2 5 Nordeste 11 Este 0 -- -- 74
2019-08-05 09:00:00 15.6 3 Sur 8 Sur 0 -- -- 88
2019-08-05 08:00:00 12 4 Sudeste 14 Sur 0 -- -- 93
2019-08-05 07:00:00 11.3 11 Sur 13 Sudeste 0 -- -- 94
2019-08-05 06:00:00 12.1 2 Sur 7 Sur 0 -- -- 91
2019-08-05 05:00:00 14.1 0 Calma 10 Sudeste 0 -- -- 86
2019-08-05 04:00:00 13.9 9 Sudeste 12 Sudeste 0 -- -- 85
2019-08-05 03:00:00 15.4 4 Sudeste 19 Sur 0 -- -- 80
2019-08-05 02:00:00 15.4 12 Sur 14 Sudeste 0 -- -- 83
2019-08-05 01:00:00 16.4 8 Sur 11 Sur 0 -- -- 78
2019-08-05 00:00:00 18.7 7 Sudoeste 14 Sudoeste 0 -- -- 71
2019-08-04 23:00:00 21 11 Sudoeste 19 Sudoeste 0 -- -- 62
2019-08-04 22:00:00 23.5 11 Sudoeste 23 Sudoeste 0 -- -- 52
2019-08-04 21:00:00 27.1 15 Oeste 30 Oeste 0 -- -- 40
2019-08-04 20:00:00 29.8 9 Sudoeste 27 Sudoeste 0 -- -- 28
2019-08-04 19:00:00 30.7 14 Sudoeste 31 Sudoeste 0 -- -- 26
2019-08-04 18:00:00 30.2 23 Oeste 38 Oeste 0 -- -- 27
2019-08-04 17:00:00 30.7 13 Sur 35 Sudoeste 0 -- -- 27
2019-08-04 16:00:00 30.5 14 Sudoeste 31 Sudeste 0 -- -- 30
2019-08-04 15:00:00 29.6 11 Sur 31 Sur 0 -- -- 34
2019-08-04 14:00:00 28.8 10 Sudoeste 45 Sur 0 -- -- 37
2019-08-04 13:00:00 26.1 9 Noroeste 21 Oeste 0 -- -- 48
2019-08-04 12:00:00 23.5 8 Noroeste 16 Oeste 0 -- -- 58
2019-08-04 11:00:00 21 7 Noroeste 13 Noroeste 0 -- -- 65
2019-08-04 10:00:00 19.4 4 Noroeste 10 Oeste 0 -- -- 71
2019-08-04 09:00:00 17.2 4 Oeste 11 Sur 0 -- -- 78
2019-08-04 08:00:00 13.9 7 Sur 10 Sur 0 -- -- 85
2019-08-04 07:00:00 14 7 Sur 13 Sur 0 -- -- 84
2019-08-04 06:00:00 14 10 Sur 12 Sur 0 -- -- 85
2019-08-04 05:00:00 15.1 8 Sudeste 19 Sur 0 -- -- 80
2019-08-04 04:00:00 15.2 15 Sur 18 Sur 0 -- -- 76
2019-08-04 03:00:00 15.4 10 Sur 14 Sur 0 -- -- 72
2019-08-04 02:00:00 16 9 Sur 13 Sur 0 -- -- 69
2019-08-04 01:00:00 18 9 Sudoeste 18 Sudoeste 0 -- -- 65
2019-08-04 00:00:00 18.5 10 Sur 19 Oeste 0 -- -- 62
2019-08-03 23:00:00 22.2 11 Oeste 19 Oeste 0 -- -- 49
2019-08-03 22:00:00 24.4 12 Oeste 24 Noroeste 0 -- -- 41
2019-08-03 21:00:00 28 13 Noroeste 23 Noroeste 0 -- -- 36
2019-08-03 20:00:00 29.7 14 Noroeste 28 Noroeste 0 -- -- 30
2019-08-03 19:00:00 30 13 Sudoeste 32 Oeste 0 -- -- 29
2019-08-03 18:00:00 30.4 12 Oeste 31 Oeste 0 -- -- 29
2019-08-03 17:00:00 29.3 16 Sudoeste 29 Oeste 0 -- -- 31
2019-08-03 16:00:00 29.3 17 Oeste 35 Oeste 0 -- -- 32
2019-08-03 15:00:00 28.3 15 Oeste 32 Oeste 0 -- -- 35
2019-08-03 14:00:00 27.3 14 Noroeste 26 Sudoeste 0 -- -- 37
2019-08-03 13:00:00 28 13 Oeste 27 Noroeste 0 -- -- 35
2019-08-03 12:00:00 25.7 13 Oeste 20 Oeste 0 -- -- 48
2019-08-03 11:00:00 23.6 7 Noroeste 12 Noroeste 0 -- -- 52
2019-08-03 10:00:00 21 7 Noroeste 10 Oeste 0 -- -- 61
2019-08-03 09:00:00 17.6 3 Sudoeste 13 Sur 0 -- -- 66
2019-08-03 08:00:00 14.1 12 Sudeste 17 Sur 0 -- -- 72
2019-08-03 07:00:00 13.5 11 Sur 14 Sudeste 0 -- -- 74
2019-08-03 06:00:00 15.5 5 Sur 15 Sur 0 -- -- 71
2019-08-03 05:00:00 15.5 6 Sudeste 14 Sudeste 0 -- -- 69
2019-08-03 04:00:00 16.6 12 Sur 20 Sur 0 -- -- 63
2019-08-03 03:00:00 17.3 15 Sur 20 Sur 0 -- -- 59
2019-08-03 02:00:00 17.6 15 Sur 19 Sur 0 -- -- 57
2019-08-03 01:00:00 18 11 Sur 20 Sur 0 -- -- 49
2019-08-03 00:00:00 19.6 17 Sur 19 Sur 0 -- -- 44
2019-08-02 23:00:00 20.3 15 Sur 20 Sur 0 -- -- 46
2019-08-02 22:00:00 22.9 10 Sur 14 Sur 0 -- -- 41
2019-08-02 21:00:00 28.1 8 Noroeste 21 Oeste 0 -- -- 30
2019-08-02 20:00:00 29.8 10 Oeste 20 Oeste 0 -- -- 26
2019-08-02 19:00:00 30.5 11 Noroeste 24 Oeste 0 -- -- 26
2019-08-02 18:00:00 30.5 10 Noroeste 23 Oeste 0 -- -- 26
2019-08-02 17:00:00 30.1 10 Norte 24 Oeste 0 -- -- 27
2019-08-02 16:00:00 29.6 10 Noroeste 25 Oeste 0 -- -- 30
2019-08-02 15:00:00 28.6 10 Noroeste 20 Oeste 0 -- -- 33
2019-08-02 14:00:00 27.3 10 Oeste 18 Oeste 0 -- -- 38
2019-08-02 13:00:00 25.8 6 Norte 13 Oeste 0 -- -- 39
2019-08-02 12:00:00 23.3 5 Norte 13 Noroeste 0 -- -- 46
2019-08-02 11:00:00 21.2 5 Norte 11 Noroeste 0 -- -- 52
2019-08-02 10:00:00 18.5 3 Noroeste 8 Noroeste 0 -- -- 59
2019-08-02 09:00:00 15.7 0 Calma 5 Sudeste 0 -- -- 68
2019-08-02 08:00:00 11.9 6 Sudeste 12 Sur 0 -- -- 78
2019-08-02 07:00:00 12.2 5 Este 10 Sudeste 0 -- -- 77
2019-08-02 06:00:00 12.7 7 Sudeste 10 Sur 0 -- -- 76
2019-08-02 05:00:00 13.4 5 Sudeste 12 Sudeste 0 -- -- 73
2019-08-02 04:00:00 14.3 10 Sur 15 Sur 0 -- -- 69
2019-08-02 03:00:00 15 15 Sur 19 Sur 0 -- -- 63
2019-08-02 02:00:00 15.4 13 Sur 20 Sur 0 -- -- 63
2019-08-02 01:00:00 16 10 Sur 17 Sur 0 -- -- 60
2019-08-02 00:00:00 18.2 9 Sudoeste 17 Sudoeste 0 -- -- 55
2019-08-01 23:00:00 19.9 11 Sudoeste 18 Sudoeste 0 -- -- 48
2019-08-01 22:00:00 22.4 10 Sudoeste 21 Oeste 0 -- -- 41
2019-08-01 21:00:00 26.7 9 Noroeste 21 Noroeste 0 -- -- 27
2019-08-01 20:00:00 28.2 12 Noroeste 27 Noroeste 0 -- -- 24
2019-08-01 19:00:00 28.6 18 Noroeste 31 Oeste 0 -- -- 26
2019-08-01 18:00:00 28.6 18 Noroeste 30 Noroeste 0 -- -- 27
2019-08-01 17:00:00 28 21 Oeste 35 Oeste 0 -- -- 28
2019-08-01 16:00:00 28 18 Noroeste 40 Noroeste 0 -- -- 25
2019-08-01 15:00:00 27.3 16 Oeste 32 Noroeste 0 -- -- 27
2019-08-01 14:00:00 26.6 15 Noroeste 26 Noroeste 0 -- -- 31
2019-08-01 13:00:00 24.9 13 Oeste 24 Oeste 0 -- -- 35
2019-08-01 12:00:00 23.3 11 Noroeste 19 Noroeste 0 -- -- 42
2019-08-01 11:00:00 22 8 Oeste 14 Noroeste 0 -- -- 47
2019-08-01 10:00:00 20 7 Noroeste 11 Noroeste 0 -- -- 53
2019-08-01 09:00:00 16.5 4 Sur 15 Sur 0 -- -- 61
2019-08-01 08:00:00 12.3 12 Sur 15 Sur 0 -- -- 74
2019-08-01 07:00:00 12.3 12 Sur 16 Sur 0 -- -- 72
2019-08-01 06:00:00 13 8 Sudoeste 17 Sur 0 -- -- 65
2019-08-01 05:00:00 13.8 9 Sudoeste 19 Sur 0 -- -- 61
2019-08-01 04:00:00 14.6 13 Sur 20 Sur 0 -- -- 58
2019-08-01 03:00:00 15.3 14 Sur 19 Sur 0 -- -- 56
2019-08-01 02:00:00 15.4 11 Sur 13 Sur 0 -- -- 57
2019-08-01 01:00:00 16.6 6 Sudeste 10 Sudeste 0 -- -- 53
2019-08-01 00:00:00 18.1 5 Sudeste 13 Este 0 -- -- 49
2019-07-31 23:00:00 20 9 Este 12 Este 0 -- -- 44
2019-07-31 22:00:00 22.2 3 Norte 14 Noroeste 0 -- -- 39
2019-07-31 21:00:00 23.7 9 Noroeste 19 Norte 0 -- -- 37
2019-07-31 20:00:00 25.3 14 Noroeste 24 Noroeste 0 -- -- 35
2019-07-31 19:00:00 27.1 8 Noroeste 22 Noroeste 0 -- -- 30
2019-07-31 18:00:00 27.3 10 Noroeste 22 Oeste 0 -- -- 31
2019-07-31 17:00:00 28 17 Noroeste 30 Oeste 0 -- -- 25
2019-07-31 16:00:00 28.5 13 Sudoeste 30 Sudeste 0 -- -- 24
2019-07-31 15:00:00 26.7 11 Oeste 23 Nordeste 0 -- -- 32
2019-07-31 14:00:00 24.9 8 Nordeste 21 Nordeste 0 -- -- 37
2019-07-31 13:00:00 23.2 11 Norte 22 Norte 0 -- -- 41
2019-07-31 12:00:00 21.2 12 Nordeste 22 Norte 0 -- -- 46
2019-07-31 11:00:00 19.5 14 Nordeste 19 Nordeste 0 -- -- 48
2019-07-31 10:00:00 16.9 10 Nordeste 17 Nordeste 0 -- -- 56
2019-07-31 09:00:00 14.2 10 Nordeste 17 Nordeste 0 -- -- 62
2019-07-31 08:00:00 13.2 14 Nordeste 19 Nordeste 0 -- -- 56
2019-07-31 07:00:00 12.9 14 Nordeste 28 Este 0 -- -- 54
2019-07-31 06:00:00 16 18 Este 26 Este 0 -- -- 42
2019-07-31 05:00:00 15.7 16 Este 26 Este 0 -- -- 45
2019-07-31 04:00:00 15.1 14 Este 19 Este 0 -- -- 45
2019-07-31 03:00:00 13.2 10 Este 12 Este 0 -- -- 49
2019-07-31 02:00:00 15.1 10 Este 17 Este 0 -- -- 44
2019-07-31 01:00:00 16.3 6 Nordeste 18 Este 0 -- -- 40
2019-07-31 00:00:00 16.9 12 Este 18 Este 0 -- -- 37
2019-07-30 23:00:00 16.9 12 Este 16 Este 0 -- -- 36
2019-07-30 22:00:00 17.9 8 Este 22 Nordeste 0 -- -- 34
2019-07-30 21:00:00 21.9 16 Nordeste 27 Nordeste 0 -- -- 27
2019-07-30 20:00:00 23.1 16 Norte 28 Noroeste 0 -- -- 26
2019-07-30 19:00:00 23.5 18 Nordeste 33 Nordeste 0 -- -- 26
2019-07-30 18:00:00 23.7 17 Nordeste 31 Norte 0 -- -- 25
2019-07-30 17:00:00 23.4 18 Nordeste 38 Nordeste 0 -- -- 24
2019-07-30 16:00:00 22.8 19 Nordeste 33 Nordeste 0 -- -- 25
2019-07-30 15:00:00 21.6 24 Nordeste 36 Nordeste 0 -- -- 29
2019-07-30 14:00:00 20.1 19 Nordeste 33 Nordeste 0 -- -- 34
2019-07-30 13:00:00 18.5 22 Nordeste 32 Nordeste 0 -- -- 40
2019-07-30 12:00:00 16.9 20 Nordeste 34 Nordeste 0 -- -- 47
2019-07-30 11:00:00 14.8 23 Nordeste 34 Nordeste 0 -- -- 56
2019-07-30 10:00:00 12.1 18 Nordeste 24 Nordeste 0 -- -- 71
2019-07-30 09:00:00 10.3 11 Nordeste 15 Nordeste 0 -- -- 81
2019-07-30 08:00:00 7.9 5 Este 15 Este 0 -- -- 89
2019-07-30 07:00:00 6.9 8 Este 10 Este 0 -- -- 94
2019-07-30 06:00:00 6.5 4 Sudeste 11 Sudeste 0 -- -- 91
2019-07-30 05:00:00 6.6 4 Sudeste 8 Sur 0 -- -- 87
2019-07-30 04:00:00 7.9 3 Sur 14 Sur 0 -- -- 82
2019-07-30 03:00:00 8.3 9 Sur 11 Sur 0 -- -- 77
2019-07-30 02:00:00 10.2 3 Sudoeste 11 Sur 0 -- -- 73
2019-07-30 01:00:00 11.4 4 Sudoeste 13 Oeste 0 -- -- 71
2019-07-30 00:00:00 11.9 5 Sudoeste 13 Sudoeste 0 -- -- 66
2019-07-29 23:00:00 13.6 7 Sur 15 Noroeste 0 -- -- 58
2019-07-29 22:00:00 16.3 10 Noroeste 26 Noroeste 0 -- -- 50
2019-07-29 21:00:00 19.3 18 Noroeste 28 Oeste 0 -- -- 39
2019-07-29 20:00:00 21.1 16 Oeste 31 Oeste 0 -- -- 35
2019-07-29 19:00:00 22.3 21 Oeste 35 Oeste 0 -- -- 35
2019-07-29 18:00:00 22.7 15 Noroeste 36 Noroeste 0 -- -- 35
2019-07-29 17:00:00 23.3 17 Oeste 32 Oeste 0 -- -- 37
2019-07-29 16:00:00 22.9 18 Oeste 32 Oeste 0 -- -- 39
2019-07-29 15:00:00 21.7 18 Oeste 33 Oeste 0 -- -- 43
2019-07-29 14:00:00 20.4 19 Noroeste 30 Oeste 0 -- -- 49
2019-07-29 13:00:00 19.3 14 Oeste 25 Oeste 0 -- -- 61
2019-07-29 12:00:00 17.2 12 Oeste 23 Oeste 0 -- -- 73
2019-07-29 11:00:00 16.5 7 Oeste 17 Oeste 0 -- -- 78
2019-07-29 10:00:00 14.8 6 Sudoeste 18 Oeste 0 -- -- 84
2019-07-29 09:00:00 14.6 10 Oeste 17 Oeste 0 -- -- 79
2019-07-29 08:00:00 11.8 10 Sudoeste 13 Sudoeste 0 -- -- 58
2019-07-29 07:00:00 10.8 6 Sudoeste 17 Sur 0 -- -- 59
2019-07-29 06:00:00 11.3 12 Sur 17 Sur 0 -- -- 42
2019-07-29 05:00:00 13.6 11 Sudoeste 21 Sur 0 -- -- 33
2019-07-29 04:00:00 13.8 14 Sudoeste 19 Sudoeste 0 -- -- 44
2019-07-29 03:00:00 13.4 11 Sudoeste 17 Sudoeste 0 -- -- 69
2019-07-29 02:00:00 15 10 Sudoeste 16 Sudoeste 0 -- -- 68
2019-07-29 01:00:00 16.4 11 Sudoeste 17 Sudoeste 0 -- -- 69
2019-07-29 00:00:00 17.4 12 Sudoeste 16 Sudoeste 0 -- -- 60
2019-07-28 23:00:00 17.6 10 Sur 19 Sudeste 0 -- -- 44
2019-07-28 22:00:00 20.3 12 Sur 15 Oeste 0 -- -- 42
2019-07-28 21:00:00 24.9 11 Oeste 20 Oeste 0 -- -- 30
2019-07-28 20:00:00 26 14 Noroeste 28 Oeste 0 -- -- 26
2019-07-28 19:00:00 26.3 15 Oeste 32 Oeste 0 -- -- 27
2019-07-28 18:00:00 26.4 16 Noroeste 32 Oeste 0 -- -- 27
2019-07-28 17:00:00 25.9 18 Oeste 35 Oeste 0 -- -- 29
2019-07-28 16:00:00 25.3 17 Noroeste 32 Noroeste 0 -- -- 29
2019-07-28 15:00:00 24.3 12 Noroeste 29 Oeste 0 -- -- 35
2019-07-28 14:00:00 23.5 14 Noroeste 30 Oeste 0 -- -- 39
2019-07-28 13:00:00 22.9 15 Noroeste 25 Oeste 0 -- -- 42
2019-07-28 12:00:00 21.6 12 Oeste 24 Noroeste 0 -- -- 47
2019-07-28 11:00:00 20.1 8 Noroeste 14 Noroeste 0 -- -- 51
2019-07-28 10:00:00 18.7 4 Oeste 8 Oeste 0 -- -- 58
2019-07-28 09:00:00 15.7 3 Sudeste 10 Sur 0 -- -- 69
2019-07-28 08:00:00 12.2 8 Sur 12 Sur 0 -- -- 81
2019-07-28 07:00:00 10.9 6 Sur 15 Este 0 -- -- 83
2019-07-28 06:00:00 12.7 13 Este 19 Este 0 -- -- 77
2019-07-28 05:00:00 12.7 12 Este 16 Este 0 -- -- 78
2019-07-28 04:00:00 13.4 14 Este 19 Este 0 -- -- 78
2019-07-28 03:00:00 13.3 8 Este 15 Este 0 -- -- 81
2019-07-28 02:00:00 15.1 2 Sudoeste 6 Sur 0 -- -- 76
2019-07-28 01:00:00 15.5 0 Calma 6 Oeste 0 -- -- 72
2019-07-28 00:00:00 16.2 3 Sudoeste 9 Noroeste 0 -- -- 68
2019-07-27 23:00:00 17.3 3 Noroeste 19 Noroeste 0 -- -- 63
2019-07-26 12:00:00 16.7 13 Noroeste 24 Oeste 0 -- -- 61
2019-07-26 11:00:00 15 13 Oeste 24 Oeste 0 -- -- 72
2019-07-26 10:00:00 13.3 9 Sudoeste 23 Sudoeste 0 -- -- 84
2019-07-26 09:00:00 11.9 11 Sudoeste 16 Sudoeste 0 -- -- 92
2019-07-26 08:00:00 11.5 9 Oeste 18 Oeste 0 -- -- 97
2019-07-26 07:00:00 12.3 12 Oeste 21 Oeste 0 -- -- 97
2019-07-26 06:00:00 13.2 6 Oeste 11 Noroeste 0 -- -- 97
2019-07-26 05:00:00 13.3 8 Noroeste 18 Oeste 0.4 -- -- 97
2019-07-26 04:00:00 14.1 12 Noroeste 22 Oeste 0.4 -- -- 95
2019-07-26 03:00:00 15.8 9 Noroeste 18 Oeste 0 -- -- 90
2019-07-26 02:00:00 16.5 10 Oeste 18 Oeste 0 -- -- 90
2019-07-26 01:00:00 16.7 10 Oeste 19 Oeste 0 -- -- 91
2019-07-26 00:00:00 17.6 7 Sudoeste 19 Oeste 0 -- -- 86
2019-07-25 23:00:00 18.5 15 Oeste 23 Sudoeste 0 -- -- 83
2019-07-25 22:00:00 20.1 13 Oeste 21 Oeste 0 -- -- 73
2019-07-25 21:00:00 22.1 15 Oeste 28 Oeste 0 -- -- 56
2019-07-25 20:00:00 25.9 15 Sudoeste 31 Oeste 0 -- -- 33
2019-07-25 19:00:00 28.8 15 Sur 35 Sur 0 -- -- 23
2019-07-25 18:00:00 28.7 20 Sudoeste 35 Sudoeste 0 -- -- 26
2019-07-25 17:00:00 29 18 Sur 35 Sudeste 0 -- -- 29
2019-07-25 16:00:00 28.6 22 Sur 43 Sudoeste 0 -- -- 31
2019-07-25 15:00:00 27.9 30 Sur 44 Sur 0 -- -- 34
2019-07-25 14:00:00 26.1 19 Sur 35 Sur 0 -- -- 36
2019-07-25 13:00:00 26.4 18 Sur 41 Sur 0 -- -- 34
2019-07-25 12:00:00 25.9 24 Sudoeste 40 Sudoeste 0 -- -- 33
2019-07-25 11:00:00 25.1 15 Sur 28 Sur 0 -- -- 35
2019-07-25 10:00:00 21.3 8 Noroeste 24 Sudoeste 0 -- -- 49
2019-07-25 09:00:00 24.3 18 Sudoeste 30 Sudoeste 0 -- -- 37
2019-07-25 08:00:00 23 21 Sudoeste 31 Sudoeste 0 -- -- 42
2019-07-25 07:00:00 20.8 9 Sur 22 Sur 0 -- -- 43
2019-07-25 06:00:00 19.4 8 Sur 15 Sudeste 0 -- -- 47
2019-07-25 05:00:00 18.6 10 Sudeste 13 Sudeste 0 -- -- 53
2019-07-25 04:00:00 17.8 7 Este 13 Este 0 -- -- 51
2019-07-25 03:00:00 16.3 10 Sur 16 Sur 0 -- -- 61
2019-07-25 02:00:00 16.7 12 Sur 16 Sur 0 -- -- 59
2019-07-25 01:00:00 18.3 7 Sur 14 Sudoeste 0 -- -- 53
2019-07-25 00:00:00 20.6 11 Sudoeste 19 Sudoeste 0 -- -- 42
2019-07-24 23:00:00 22.5 11 Sudoeste 18 Sudoeste 0 -- -- 42
2019-07-24 22:00:00 26 13 Sudoeste 23 Sudoeste 0 -- -- 40
2019-07-24 21:00:00 29.7 16 Sur 31 Sudoeste 0 -- -- 28
2019-07-24 20:00:00 30.5 20 Sudoeste 33 Sudoeste 0 -- -- 28
2019-07-24 19:00:00 31.5 19 Sur 37 Sur 0 -- -- 28
2019-07-24 18:00:00 31.2 19 Sur 42 Sudeste 0 -- -- 28
2019-07-24 17:00:00 31.1 18 Sur 42 Sur 0 -- -- 30
2019-07-24 16:00:00 31.1 23 Sur 37 Sur 0 -- -- 32
2019-07-24 15:00:00 30.6 25 Sur 40 Sur 0 -- -- 31
2019-07-24 14:00:00 30.3 19 Sur 35 Sur 0 -- -- 35
2019-07-24 13:00:00 29.3 15 Sur 30 Sur 0 -- -- 35
2019-07-24 12:00:00 28.3 19 Sur 39 Sur 0 -- -- 37
2019-07-24 11:00:00 27.5 16 Sur 31 Sur 0 -- -- 38
2019-07-24 10:00:00 26.6 12 Sudeste 26 Sur 0 -- -- 41
2019-07-24 09:00:00 25.2 13 Sudeste 22 Sudeste 0 -- -- 42
2019-07-24 08:00:00 22.1 13 Sudeste 22 Sudeste 0 -- -- 50
2019-07-24 07:00:00 21.8 15 Sudeste 21 Sudeste 0 -- -- 49
2019-07-24 06:00:00 22.5 16 Sudeste 22 Sudeste 0 -- -- 46
2019-07-24 05:00:00 19.4 12 Sur 15 Sudeste 0 -- -- 67
2019-07-24 04:00:00 18.7 7 Sur 14 Sur 0 -- -- 73
2019-07-24 03:00:00 18.8 11 Sudeste 13 Este 0 -- -- 72
2019-07-24 02:00:00 19 8 Sudeste 14 Sur 0 -- -- 71
2019-07-24 01:00:00 19.8 11 Sur 13 Sur 0 -- -- 68
2019-07-24 00:00:00 21 2 Sudoeste 16 Sur 0 -- -- 63
2019-07-23 23:00:00 21.5 6 Sur 10 Sur 0 -- -- 61
2019-07-23 22:00:00 23.8 5 Sudoeste 18 Noroeste 0 -- -- 53
2019-07-23 21:00:00 26.8 15 Noroeste 25 Noroeste 0 -- -- 47
2019-07-23 20:00:00 29.5 19 Sudoeste 33 Sudoeste 0 -- -- 34
2019-07-23 19:00:00 30.6 17 Sur 37 Sur 0 -- -- 33
2019-07-23 18:00:00 31.3 23 Sur 42 Sur 0 -- -- 33
2019-07-23 17:00:00 30.9 20 Sur 44 Sudeste 0 -- -- 33
2019-07-23 16:00:00 30.5 32 Sur 53 Sur 0 -- -- 33
2019-07-23 15:00:00 30.1 32 Sur 60 Sudeste 0 -- -- 34
2019-07-23 14:00:00 30.1 28 Sur 53 Sudeste 0 -- -- 33
2019-07-23 13:00:00 28.7 39 Sur 56 Sudeste 0 -- -- 35
2019-07-23 12:00:00 28.9 35 Sudeste 57 Sudeste 0 -- -- 33
2019-07-23 11:00:00 28.1 21 Sudeste 48 Sur 0 -- -- 33
2019-07-23 10:00:00 24.3 10 Este 13 Este 0 -- -- 44
2019-07-23 09:00:00 22.7 9 Este 15 Este 0 -- -- 48
2019-07-23 08:00:00 21.4 9 Este 18 Este 0 -- -- 53
2019-07-23 07:00:00 20.6 14 Este 22 Este 0 -- -- 57
2019-07-23 06:00:00 21.2 8 Nordeste 19 Sur 0 -- -- 55
2019-07-23 05:00:00 21 12 Sudoeste 23 Sudoeste 0 -- -- 57
2019-07-23 04:00:00 22.5 12 Sudoeste 45 Este 0 -- -- 52
2019-07-23 03:00:00 25.6 28 Este 45 Este 0 -- -- 34
2019-07-23 02:00:00 24.4 11 Este 35 Este 0 -- -- 36
2019-07-23 01:00:00 24.5 23 Este 36 Este 0 -- -- 38
2019-07-23 00:00:00 23.2 6 Nordeste 12 Norte 0 -- -- 49
2019-07-22 23:00:00 24 5 Noroeste 16 Sur 0 -- -- 48
2019-07-22 22:00:00 26.9 3 Este 6 Nordeste 0 -- -- 39
2019-07-22 21:00:00 29.6 6 Nordeste 19 Norte 0 -- -- 33
2019-07-22 20:00:00 32.3 17 Sudoeste 33 Noroeste 0 -- -- 30
2019-07-22 19:00:00 34 18 Sur 35 Sudoeste 0 -- -- 26
2019-07-22 18:00:00 34.9 12 Sur 24 Este 0 -- -- 21
2019-07-22 17:00:00 34.4 10 Sur 19 Sudeste 0 -- -- 24
2019-07-22 16:00:00 34.7 5 Norte 25 Sudeste 0 -- -- 25
2019-07-22 15:00:00 33.4 10 Nordeste 19 Nordeste 0 -- -- 27
2019-07-22 14:00:00 33.2 10 Norte 21 Noroeste 0 -- -- 27
2019-07-22 13:00:00 32.4 6 Sudoeste 14 Sur 0 -- -- 28
2019-07-22 12:00:00 30.7 6 Nordeste 14 Este 0 -- -- 33
2019-07-22 11:00:00 29.5 4 Noroeste 8 Noroeste 0 -- -- 32
2019-07-22 10:00:00 26.8 2 Noroeste 11 Sur 0 -- -- 36
2019-07-22 09:00:00 22.8 10 Sur 16 Sur 0 -- -- 49
2019-07-22 08:00:00 19.5 8 Sur 12 Sur 0 -- -- 53
2019-07-22 07:00:00 20.6 5 Sur 11 Sudeste 0 -- -- 46
2019-07-22 06:00:00 22.5 4 Oeste 19 Sudeste 0 -- -- 39
2019-07-22 05:00:00 23.8 11 Sudeste 18 Sudeste 0 -- -- 37
2019-07-22 04:00:00 19.3 9 Este 13 Este 0 -- -- 49
2019-07-22 03:00:00 19.2 9 Sudeste 15 Sur 0 -- -- 50
2019-07-22 02:00:00 20.1 11 Sur 15 Sudeste 0 -- -- 52
2019-07-22 01:00:00 20.7 13 Sur 18 Sur 0 -- -- 46
2019-07-22 00:00:00 21.7 15 Sur 19 Sur 0 -- -- 42
2019-07-21 23:00:00 22.1 15 Sur 19 Sur 0 -- -- 38
2019-07-21 22:00:00 24.6 12 Sur 17 Sur 0 -- -- 34
2019-07-21 21:00:00 30.7 11 Sur 21 Sudeste 0 -- -- 21
2019-07-21 20:00:00 32.4 17 Sur 24 Sur 0 -- -- 19
2019-07-21 19:00:00 33.6 9 Noroeste 28 Sur 0 -- -- 17
2019-07-21 18:00:00 34 19 Sudoeste 33 Sudoeste 0 -- -- 15
2019-07-21 17:00:00 33.7 9 Este 28 Sudeste 0 -- -- 18
2019-07-21 16:00:00 33.1 7 Noroeste 31 Oeste 0 -- -- 21
2019-07-21 15:00:00 31.1 10 Noroeste 25 Oeste 0 -- -- 31
2019-07-21 14:00:00 30.7 9 Noroeste 21 Oeste 0 -- -- 35
2019-07-21 13:00:00 28.9 8 Noroeste 18 Noroeste 0 -- -- 40
2019-07-21 12:00:00 26.7 8 Noroeste 15 Noroeste 0 -- -- 48
2019-07-21 11:00:00 24.5 8 Noroeste 13 Noroeste 0 -- -- 53
2019-07-21 10:00:00 23 4 Norte 9 Noroeste 0 -- -- 58
2019-07-21 09:00:00 18.5 3 Sudoeste 6 Oeste 0 -- -- 73
2019-07-21 08:00:00 14.8 4 Sur 12 Sudeste 0 -- -- 76
2019-07-21 07:00:00 15 5 Sudeste 18 Nordeste 0 -- -- 79
2019-07-21 06:00:00 17.7 13 Este 19 Este 0 -- -- 72
2019-07-21 05:00:00 15.6 8 Este 11 Este 0 -- -- 81
2019-07-21 04:00:00 15.2 4 Este 9 Sur 0 -- -- 82
2019-07-21 03:00:00 15.8 9 Sudeste 16 Sudeste 0 -- -- 77
2019-07-21 02:00:00 16.9 12 Sur 18 Sur 0 -- -- 76
2019-07-21 01:00:00 18 6 Sur 15 Sudeste 0 -- -- 72
2019-07-21 00:00:00 19.7 3 Sudoeste 12 Sudoeste 0 -- -- 64